createdAt,value
2016-05-05T09:11:16.489Z,29.52
2016-05-05T09:12:16.351Z,29.52
2016-05-05T09:13:16.541Z,29.61
2016-05-05T09:14:16.576Z,28.94
2016-05-05T09:15:16.640Z,29.32
2016-05-05T09:16:16.456Z,29.03
2016-05-05T09:17:16.646Z,28.84
2016-05-05T09:18:16.665Z,28.85
2016-05-05T09:19:16.697Z,29.24
2016-05-05T09:20:16.732Z,29.14
2016-05-05T09:21:16.750Z,28.28
2016-05-05T09:22:16.769Z,28.37
2016-05-05T09:23:16.803Z,28.08
2016-05-05T09:24:16.836Z,27.98
2016-05-05T09:25:16.698Z,27.42
2016-05-05T09:26:16.872Z,27.51
2016-05-05T09:27:16.751Z,27.61
2016-05-05T09:28:16.925Z,27.51
2016-05-05T09:29:16.959Z,27.71
2016-05-05T09:30:16.979Z,27.91
2016-05-05T09:31:17.018Z,27.91
2016-05-05T09:32:17.148Z,27.44
2016-05-05T09:33:17.072Z,27.62
2016-05-05T09:34:16.919Z,27.24
2016-05-05T09:35:17.124Z,26.86
2016-05-05T09:36:17.142Z,26.95
2016-05-05T09:37:17.161Z,26.86
2016-05-05T09:38:17.179Z,26.19
2016-05-05T09:39:17.071Z,26.29
2016-05-05T09:40:17.450Z,26.57
2016-05-05T09:41:17.265Z,26.39
2016-05-05T09:42:17.288Z,26.09
2016-05-05T09:43:17.327Z,26.19
2016-05-05T09:44:17.377Z,26.19
2016-05-05T09:45:17.379Z,26.57
2016-05-05T09:46:17.397Z,26.1
2016-05-05T09:47:17.432Z,25.92
2016-05-05T09:48:17.356Z,25.62
2016-05-05T09:49:17.484Z,25.14
2016-05-05T09:50:17.518Z,25.14
2016-05-05T09:51:17.536Z,25.52
2016-05-05T09:52:17.570Z,24.95
2016-05-05T09:53:17.604Z,25.35
2016-05-05T09:54:18.497Z,25.05
2016-05-05T09:55:17.656Z,25.15
2016-05-05T09:56:17.675Z,24.86
2016-05-05T09:57:17.708Z,24.86
2016-05-05T09:58:17.742Z,24.77
2016-05-05T09:59:17.777Z,24.18
2016-05-05T10:00:17.779Z,24.28
2016-05-05T10:01:17.813Z,24.28
2016-05-05T10:02:17.847Z,24.48
2016-05-05T10:03:17.865Z,24.49
2016-05-05T10:04:17.883Z,24.19
2016-05-05T10:05:17.932Z,24.39
2016-05-05T10:06:17.951Z,24.1
2016-05-05T10:07:17.970Z,24.39
2016-05-05T10:08:18.004Z,24.39
2016-05-05T10:09:18.318Z,24.68
2016-05-05T10:10:17.915Z,24.69
2016-05-05T10:11:18.434Z,24.02
2016-05-05T10:12:18.123Z,24.21
2016-05-05T10:13:18.158Z,23.43
2016-05-05T10:14:18.176Z,23.43
2016-05-05T10:15:18.209Z,23.63
2016-05-05T10:16:18.229Z,23.72
2016-05-05T10:17:18.262Z,23.43
2016-05-05T10:18:18.561Z,23.53
2016-05-05T10:19:18.331Z,23.54
2016-05-05T10:20:18.348Z,23.83
2016-05-05T10:21:18.382Z,23.64
2016-05-05T10:22:18.401Z,23.54
2016-05-05T10:23:18.278Z,23.06
2016-05-05T10:24:18.469Z,23.36
2016-05-05T10:25:18.486Z,23.85
2016-05-05T10:26:18.521Z,23.36
2016-05-05T10:27:18.539Z,23.36
2016-05-05T10:28:19.042Z,23.16
2016-05-05T10:29:18.607Z,22.78
2016-05-05T10:30:18.625Z,23.07
2016-05-05T10:31:18.659Z,22.99
2016-05-05T10:32:18.537Z,22.79
2016-05-05T10:33:18.712Z,22.3
2016-05-05T10:34:18.746Z,21.82
2016-05-05T10:35:18.780Z,21.92
2016-05-05T10:36:18.813Z,21.92
2016-05-05T10:37:18.832Z,22.02
2016-05-05T10:38:18.866Z,21.43
2016-05-05T10:39:18.899Z,21.53
2016-05-05T10:40:18.918Z,21.72
2016-05-05T10:41:18.951Z,22.02
2016-05-05T10:42:18.985Z,22.12
2016-05-05T10:43:19.004Z,22.12
2016-05-05T10:44:19.038Z,22.12
2016-05-05T10:45:19.072Z,22.22
2016-05-05T10:46:19.106Z,21.83
2016-05-05T10:47:19.124Z,21.34
2016-05-05T10:48:19.159Z,20.86
2016-05-05T10:49:19.192Z,20.86
2016-05-05T10:50:19.211Z,20.96
2016-05-05T10:51:19.244Z,21.15
2016-05-05T10:52:19.278Z,20.77
2016-05-05T10:53:19.312Z,20.68
2016-05-05T10:54:19.330Z,20.39
2016-05-05T10:55:19.380Z,20.68
2016-05-05T10:56:19.398Z,20.48
2016-05-05T10:57:19.433Z,20.68
2016-05-05T10:58:19.450Z,20.68
2016-05-05T10:59:19.517Z,20.68
2016-05-05T11:00:19.594Z,20.68
2016-05-05T11:01:19.655Z,20.68
2016-05-05T11:02:19.734Z,20.68
2016-05-05T11:03:19.811Z,20.39
2016-05-05T11:04:19.868Z,20.2
2016-05-05T11:05:19.950Z,20.3
2016-05-05T11:06:19.952Z,20.2
2016-05-05T11:07:20.002Z,20.2
2016-05-05T11:08:20.052Z,20.2
2016-05-05T11:09:20.845Z,19.91
2016-05-05T11:10:20.134Z,20.01
2016-05-05T11:11:20.158Z,20.01
2016-05-05T11:12:20.197Z,19.73
2016-05-05T11:13:20.236Z,19.71
2016-05-05T11:14:20.272Z,19.71
2016-05-05T11:15:20.293Z,19.73
2016-05-05T11:16:20.328Z,19.82
2016-05-05T11:17:20.365Z,20.01
2016-05-05T11:18:20.400Z,19.82
2016-05-05T11:19:20.420Z,20.21
2016-05-05T11:20:20.298Z,19.82
2016-05-05T11:21:20.333Z,19.63
2016-05-05T11:22:20.524Z,19.53
2016-05-05T11:23:20.556Z,19.83
2016-05-05T11:24:21.027Z,19.63
2016-05-05T11:25:20.608Z,19.83
2016-05-05T11:26:20.643Z,19.64
2016-05-05T11:27:20.677Z,19.54
2016-05-05T11:28:20.711Z,19.15
2016-05-05T11:29:20.574Z,18.96
2016-05-05T11:30:20.764Z,19.06
2016-05-05T11:31:20.797Z,18.96
2016-05-05T11:32:20.676Z,18.87
2016-05-05T11:33:20.867Z,18.87
2016-05-05T11:34:20.884Z,18.77
2016-05-05T11:35:20.933Z,18.48
2016-05-05T11:36:20.952Z,18.48
2016-05-05T11:37:20.830Z,18.87
2016-05-05T11:38:21.035Z,18.87
2016-05-05T11:39:21.054Z,18.87
2016-05-05T11:40:21.089Z,18.88
2016-05-05T11:41:21.107Z,18.77
2016-05-05T11:42:21.156Z,18.68
2016-05-05T11:43:21.174Z,18.38
2016-05-05T11:44:21.208Z,18.68
2016-05-05T11:45:21.226Z,18.39
2016-05-05T11:46:21.292Z,18.29
2016-05-05T11:47:21.294Z,18.59
2016-05-05T11:48:21.329Z,18.39
2016-05-05T11:49:21.362Z,18.49
2016-05-05T11:50:21.396Z,18.19
2016-05-05T11:51:21.430Z,18.19
2016-05-05T11:52:21.448Z,18.29
2016-05-05T11:53:21.342Z,18.39
2016-05-05T11:54:21.610Z,18.59
2016-05-05T11:55:21.566Z,18.19
2016-05-05T11:56:21.585Z,18.29
2016-05-05T11:57:21.618Z,18.3
2016-05-05T11:58:21.653Z,18.3
2016-05-05T11:59:21.670Z,18.1
2016-05-05T12:00:21.720Z,17.82
2016-05-05T12:01:21.738Z,17.82
2016-05-05T12:02:21.772Z,17.72
2016-05-05T12:03:21.650Z,17.52
2016-05-05T12:04:21.840Z,17.91
2016-05-05T12:05:21.875Z,17.52
2016-05-05T12:06:21.924Z,17.52
2016-05-05T12:07:21.927Z,17.72
2016-05-05T12:08:21.975Z,17.52
2016-05-05T12:09:22.072Z,17.43
2016-05-05T12:10:22.028Z,17.62
2016-05-05T12:11:22.063Z,17.72
2016-05-05T12:12:22.096Z,17.43
2016-05-05T12:13:21.989Z,17.72
2016-05-05T12:14:22.007Z,17.82
2016-05-05T12:15:22.041Z,17.72
2016-05-05T12:16:22.231Z,17.53
2016-05-05T12:17:22.250Z,17.92
2016-05-05T12:18:22.285Z,17.34
2016-05-05T12:19:22.318Z,17.05
2016-05-05T12:20:22.352Z,17.53
2016-05-05T12:21:22.385Z,17.05
2016-05-05T12:22:22.435Z,17.34
2016-05-05T12:23:22.453Z,17.24
2016-05-05T12:24:22.487Z,17.05
2016-05-05T12:25:22.522Z,17.24
2016-05-05T12:26:22.384Z,17.24
2016-05-05T12:27:22.590Z,17.34
2016-05-05T12:28:22.608Z,16.86
2016-05-05T12:29:22.642Z,16.75
2016-05-05T12:30:22.675Z,16.76
2016-05-05T12:31:22.710Z,16.75
2016-05-05T12:32:22.744Z,16.96
2016-05-05T12:33:22.777Z,16.96
2016-05-05T12:34:22.811Z,16.47
2016-05-05T12:35:22.845Z,16.86
2016-05-05T12:36:22.722Z,16.76
2016-05-05T12:37:22.897Z,16.47
2016-05-05T12:38:22.931Z,16.86
2016-05-05T12:39:22.966Z,16.56
2016-05-05T12:40:23.327Z,17.05
2016-05-05T12:41:23.033Z,17.06
2016-05-05T12:42:23.067Z,16.77
2016-05-05T12:43:23.101Z,16.48
2016-05-05T12:44:23.135Z,16.58
2016-05-05T12:45:23.169Z,16.67
2016-05-05T12:46:23.203Z,16.38
2016-05-05T12:47:23.237Z,16.67
2016-05-05T12:48:23.271Z,16.67
2016-05-05T12:49:23.305Z,16.19
2016-05-05T12:50:23.338Z,16.38
2016-05-05T12:51:23.357Z,16.48
2016-05-05T12:52:23.390Z,16.28
2016-05-05T12:53:23.425Z,16.28
2016-05-05T12:54:23.459Z,16.38
2016-05-05T12:55:24.149Z,16.58
2016-05-05T12:56:23.527Z,16.09
2016-05-05T12:57:23.561Z,16.29
2016-05-05T12:58:23.438Z,16.19
2016-05-05T12:59:23.628Z,16.38
2016-05-05T13:00:23.663Z,16.39
2016-05-05T13:01:23.697Z,16.28
2016-05-05T13:02:23.731Z,16.67
2016-05-05T13:03:23.608Z,16.48
2016-05-05T13:04:23.798Z,16.58
2016-05-05T13:05:23.833Z,16.29
2016-05-05T13:06:23.866Z,16.58
2016-05-05T13:07:23.900Z,16
2016-05-05T13:08:23.919Z,15.9
2016-05-05T13:09:24.078Z,16
2016-05-05T13:10:24.002Z,15.9
2016-05-05T13:11:23.864Z,15.9
2016-05-05T13:12:24.055Z,16
2016-05-05T13:13:24.088Z,16
2016-05-05T13:14:24.122Z,15.7
2016-05-05T13:15:24.155Z,15.9
2016-05-05T13:16:24.190Z,16
2016-05-05T13:17:24.224Z,16.09
2016-05-05T13:18:24.258Z,15.9
2016-05-05T13:19:24.291Z,15.7
2016-05-05T13:20:24.326Z,15.31
2016-05-05T13:21:24.360Z,15.61
2016-05-05T13:22:24.394Z,16
2016-05-05T13:23:24.443Z,16.09
2016-05-05T13:24:24.462Z,15.8
2016-05-05T13:25:24.355Z,16
2016-05-05T13:26:24.373Z,15.8
2016-05-05T13:27:24.407Z,15.41
2016-05-05T13:28:24.598Z,15.22
2016-05-05T13:29:24.631Z,15.12
2016-05-05T13:30:24.665Z,15.41
2016-05-05T13:31:24.699Z,14.92
2016-05-05T13:32:24.733Z,15.02
2016-05-05T13:33:24.767Z,14.92
2016-05-05T13:34:24.801Z,14.73
2016-05-05T13:35:24.851Z,14.53
2016-05-05T13:36:24.869Z,14.53
2016-05-05T13:37:36.578Z,14.63
2016-05-05T13:38:24.937Z,14.63
2016-05-05T13:39:26.361Z,14.53
2016-05-05T13:40:25.411Z,14.73
2016-05-05T13:41:25.039Z,14.73
2016-05-05T13:42:25.072Z,14.63
2016-05-05T13:43:25.106Z,14.53
2016-05-05T13:44:25.141Z,14.53
2016-05-05T13:45:25.174Z,14.63
2016-05-05T13:46:25.208Z,14.73
2016-05-05T13:47:25.242Z,14.53
2016-05-05T13:48:25.277Z,14.63
2016-05-05T13:49:25.326Z,14.53
2016-05-05T13:50:25.343Z,14.53
2016-05-05T13:51:25.378Z,14.53
2016-05-05T13:52:25.412Z,14.53
2016-05-05T13:53:25.446Z,14.33
2016-05-05T13:54:25.480Z,14.53
2016-05-05T13:55:25.545Z,14.33
2016-05-05T13:56:25.548Z,14.73
2016-05-05T13:57:25.582Z,14.73
2016-05-05T13:58:25.615Z,14.53
2016-05-05T13:59:25.649Z,14.73
2016-05-05T14:00:25.684Z,14.73
2016-05-05T14:01:25.748Z,14.53
2016-05-05T14:02:25.751Z,14.63
2016-05-05T14:03:25.784Z,14.43
2016-05-05T14:04:25.819Z,14.43
2016-05-05T14:05:25.853Z,14.53
2016-05-05T14:06:25.887Z,14.34
2016-05-05T14:07:25.920Z,14.54
2016-05-05T14:08:25.955Z,14.25
2016-05-05T14:09:25.989Z,14.34
2016-05-05T14:10:25.867Z,14.83
2016-05-05T14:11:26.103Z,14.25
2016-05-05T14:12:26.091Z,14.05
2016-05-05T14:13:26.125Z,14.34
2016-05-05T14:14:26.159Z,13.95
2016-05-05T14:15:26.192Z,13.95
2016-05-05T14:16:26.227Z,14.34
2016-05-05T14:17:26.104Z,13.85
2016-05-05T14:18:26.295Z,13.95
2016-05-05T14:19:26.343Z,13.85
2016-05-05T14:20:26.362Z,14.05
2016-05-05T14:21:26.397Z,13.85
2016-05-05T14:22:26.461Z,13.85
2016-05-05T14:23:26.463Z,14.06
2016-05-05T14:24:26.498Z,14.26
2016-05-05T14:25:26.532Z,14.26
2016-05-05T14:26:26.566Z,13.67
2016-05-05T14:27:26.646Z,13.77
2016-05-05T14:28:26.634Z,13.77
2016-05-05T14:29:26.684Z,13.87
2016-05-05T14:30:26.718Z,13.57
2016-05-05T14:31:26.735Z,13.77
2016-05-05T14:32:26.770Z,13.57
2016-05-05T14:33:26.663Z,13.58
2016-05-05T14:34:26.854Z,13.77
2016-05-05T14:35:26.887Z,13.67
2016-05-05T14:36:26.905Z,13.87
2016-05-05T14:37:26.956Z,13.48
2016-05-05T14:38:26.989Z,13.77
2016-05-05T14:39:27.023Z,13.78
2016-05-05T14:40:26.900Z,13.67
2016-05-05T14:41:27.091Z,13.87
2016-05-05T14:42:26.969Z,13.58
2016-05-05T14:43:27.159Z,13.28
2016-05-05T14:44:27.192Z,13.38
2016-05-05T14:45:27.227Z,13.77
2016-05-05T14:46:27.261Z,13.67
2016-05-05T14:47:27.295Z,13.87
2016-05-05T14:48:27.327Z,13.67
2016-05-05T14:49:27.377Z,13.87
2016-05-05T14:50:27.396Z,13.67
2016-05-05T14:51:27.430Z,13.68
2016-05-05T14:52:27.463Z,13.68
2016-05-05T14:53:27.498Z,13.67
2016-05-05T14:54:27.547Z,13.78
2016-05-05T14:55:27.566Z,13.58
2016-05-05T14:56:27.599Z,13.58
2016-05-05T14:57:27.649Z,13.68
2016-05-05T14:58:27.667Z,13.48
2016-05-05T14:59:27.701Z,13.58
2016-05-05T15:00:27.767Z,13.68
2016-05-05T15:01:27.784Z,13.68
2016-05-05T15:02:27.818Z,13.68
2016-05-05T15:03:27.853Z,13.58
2016-05-05T15:04:27.887Z,13.38
2016-05-05T15:05:27.765Z,13.48
2016-05-05T15:06:27.954Z,13.38
2016-05-05T15:07:27.989Z,13.28
2016-05-05T15:08:28.022Z,13.38
2016-05-05T15:09:28.056Z,13.67
2016-05-05T15:10:27.934Z,13.57
2016-05-05T15:11:28.125Z,13.77
2016-05-05T15:12:28.159Z,13.48
2016-05-05T15:13:28.192Z,13.87
2016-05-05T15:14:28.226Z,13.96
2016-05-05T15:15:28.260Z,13.77
2016-05-05T15:16:28.310Z,13.77
2016-05-05T15:17:28.171Z,13.96
2016-05-05T15:18:28.456Z,13.77
2016-05-05T15:19:28.411Z,13.57
2016-05-05T15:20:28.445Z,13.77
2016-05-05T15:21:28.464Z,13.96
2016-05-05T15:22:28.514Z,14.26
2016-05-05T15:23:28.546Z,13.48
2016-05-05T15:24:28.582Z,13.57
2016-05-05T15:25:28.615Z,13.57
2016-05-05T15:26:28.649Z,13.87
2016-05-05T15:27:28.683Z,13.38
2016-05-05T15:28:28.717Z,13.38
2016-05-05T15:29:28.751Z,13.85
2016-05-05T15:30:28.785Z,14.15
2016-05-05T15:31:28.818Z,14.25
2016-05-05T15:32:28.696Z,13.85
2016-05-05T15:33:28.886Z,13.95
2016-05-05T15:34:28.920Z,14.25
2016-05-05T15:35:30.204Z,13.76
2016-05-05T15:36:28.989Z,14.05
2016-05-05T15:37:29.023Z,13.85
2016-05-05T15:38:29.056Z,14.25
2016-05-05T15:39:29.106Z,14.25
2016-05-05T15:40:28.984Z,14.05
2016-05-05T15:41:29.018Z,14.14
2016-05-05T15:42:29.208Z,14.34
2016-05-05T15:43:29.242Z,13.95
2016-05-05T15:44:29.260Z,14.04
2016-05-05T15:45:29.309Z,13.95
2016-05-05T15:46:29.344Z,14.24
2016-05-05T15:47:29.815Z,14.53
2016-05-05T15:48:29.411Z,14.34
2016-05-05T15:49:29.445Z,14.24
2016-05-05T15:50:29.480Z,14.63
2016-05-05T15:51:29.513Z,14.53
2016-05-05T15:52:29.547Z,14.43
2016-05-05T15:53:29.425Z,14.62
2016-05-05T15:54:29.458Z,14.83
2016-05-05T15:55:29.508Z,14.53
2016-05-05T15:56:29.682Z,14.53
2016-05-05T15:57:29.716Z,14.62
2016-05-05T15:58:29.594Z,14.72
2016-05-05T15:59:29.784Z,14.72
2016-05-05T16:00:29.818Z,14.73
2016-05-05T16:01:29.696Z,14.72
2016-05-05T16:02:29.730Z,14.53
2016-05-05T16:03:29.765Z,14.62
2016-05-05T16:04:29.955Z,14.72
2016-05-05T16:05:29.987Z,15.01
2016-05-05T16:06:29.866Z,14.72
2016-05-05T16:07:30.057Z,14.52
2016-05-05T16:08:30.106Z,14.62
2016-05-05T16:09:30.140Z,14.91
2016-05-05T16:10:30.017Z,14.62
2016-05-05T16:11:30.208Z,14.91
2016-05-05T16:12:30.257Z,15.4
2016-05-05T16:13:30.259Z,14.81
2016-05-05T16:14:30.309Z,15
2016-05-05T16:15:30.344Z,14.61
2016-05-05T16:16:30.361Z,14.51
2016-05-05T16:17:30.395Z,14.71
2016-05-05T16:18:30.445Z,15.09
2016-05-05T16:19:30.463Z,14.99
2016-05-05T16:20:30.528Z,15.19
2016-05-05T16:21:30.391Z,15.38
2016-05-05T16:22:30.566Z,15.48
2016-05-05T16:23:30.459Z,15.38
2016-05-05T16:24:30.649Z,15.38
2016-05-05T16:25:31.027Z,15.77
2016-05-05T16:26:31.186Z,15.86
2016-05-05T16:27:31.516Z,15.77
2016-05-05T16:28:31.690Z,15.58
2016-05-05T16:29:30.819Z,15.57
2016-05-05T16:30:30.837Z,15.37
2016-05-05T16:31:30.871Z,15.67
2016-05-05T16:32:30.921Z,15.86
2016-05-05T16:33:30.954Z,15.86
2016-05-05T16:34:30.973Z,15.96
2016-05-05T16:35:31.037Z,16.15
2016-05-05T16:36:31.056Z,16.05
2016-05-05T16:37:31.074Z,16.05
2016-05-05T16:38:31.124Z,15.85
2016-05-05T16:39:30.987Z,15.95
2016-05-05T16:40:31.192Z,16.24
2016-05-05T16:41:31.226Z,16.24
2016-05-05T16:42:31.245Z,16.24
2016-05-05T16:43:31.278Z,16.44
2016-05-05T16:44:31.312Z,16.24
2016-05-05T16:45:31.345Z,16.34
2016-05-05T16:46:31.395Z,16.14
2016-05-05T16:47:31.414Z,16.63
2016-05-05T16:48:31.448Z,16.53
2016-05-05T16:49:31.481Z,16.33
2016-05-05T16:50:31.516Z,16.14
2016-05-05T16:51:31.549Z,16.33
2016-05-05T16:52:31.584Z,16.43
2016-05-05T16:53:31.617Z,16.72
2016-05-05T16:54:31.652Z,16.43
2016-05-05T16:55:31.701Z,16.61
2016-05-05T16:56:31.719Z,16.61
2016-05-05T16:57:31.752Z,16.62
2016-05-05T16:58:31.788Z,16.71
2016-05-05T16:59:31.822Z,16.52
2016-05-05T17:00:31.855Z,16.52
2016-05-05T17:01:31.889Z,16.61
2016-05-05T17:02:31.923Z,16.81
2016-05-05T17:03:31.956Z,16.9
2016-05-05T17:04:31.990Z,17.09
2016-05-05T17:05:32.025Z,17.38
2016-05-05T17:06:32.059Z,17.19
2016-05-05T17:07:31.937Z,17.29
2016-05-05T17:08:32.111Z,17.57
2016-05-05T17:09:32.176Z,17.47
2016-05-05T17:10:32.195Z,17.66
2016-05-05T17:11:32.213Z,17.85
2016-05-05T17:12:32.247Z,17.85
2016-05-05T17:13:32.125Z,18.24
2016-05-05T17:14:32.158Z,18.24
2016-05-05T17:15:32.348Z,18.24
2016-05-05T17:16:32.383Z,18.33
2016-05-05T17:17:32.261Z,18.23
2016-05-05T17:18:32.450Z,18.62
2016-05-05T17:19:32.484Z,18.71
2016-05-05T17:20:32.534Z,18.91
2016-05-05T17:21:32.552Z,18.8
2016-05-05T17:22:32.570Z,19.2
2016-05-05T17:23:32.620Z,19
2016-05-05T17:24:32.654Z,19
2016-05-05T17:25:32.719Z,18.9
2016-05-05T17:26:32.706Z,19.09
2016-05-05T17:27:32.740Z,19.09
2016-05-05T17:28:32.618Z,19.38
2016-05-05T17:29:32.808Z,19.57
2016-05-05T17:30:32.842Z,19.57
2016-05-05T17:31:32.876Z,19.38
2016-05-05T17:32:32.894Z,19.57
2016-05-05T17:33:32.944Z,19.86
2016-05-05T17:34:32.962Z,19.95
2016-05-05T17:35:32.996Z,20.04
2016-05-05T17:36:33.030Z,20.24
2016-05-05T17:37:33.064Z,20.24
2016-05-05T17:38:33.098Z,20.14
2016-05-05T17:39:33.132Z,19.95
2016-05-05T17:40:33.431Z,20.62
2016-05-05T17:41:33.200Z,20.53
2016-05-05T17:42:33.218Z,20.71
2016-05-05T17:43:33.096Z,20.62
2016-05-05T17:44:33.286Z,20.9
2016-05-05T17:45:33.320Z,21.1
2016-05-05T17:46:33.353Z,21
2016-05-05T17:47:33.387Z,20.7
2016-05-05T17:48:33.406Z,20.9
2016-05-05T17:49:33.456Z,21
2016-05-05T17:50:33.317Z,21.28
2016-05-05T17:51:33.539Z,21.28
2016-05-05T17:52:33.542Z,21.09
2016-05-05T17:53:33.435Z,21.86
2016-05-05T17:54:33.610Z,21.48
2016-05-05T17:55:33.472Z,21.77
2016-05-05T17:56:33.661Z,22.06
2016-05-05T17:57:33.711Z,21.86
2016-05-05T17:58:33.714Z,22.05
2016-05-05T17:59:33.763Z,21.95
2016-05-05T18:00:33.782Z,22.14
2016-05-05T18:01:33.660Z,21.85
2016-05-05T18:02:33.849Z,21.85
2016-05-05T18:03:33.884Z,22.53
2016-05-05T18:04:33.902Z,22.33
2016-05-05T18:05:33.796Z,22.33
2016-05-05T18:06:33.970Z,22.33
2016-05-05T18:07:34.004Z,22.23
2016-05-05T18:08:34.038Z,22.53
2016-05-05T18:09:34.088Z,23.01
2016-05-05T18:10:34.106Z,22.71
2016-05-05T18:11:34.139Z,23
2016-05-05T18:12:34.159Z,22.91
2016-05-05T18:13:34.239Z,22.52
2016-05-05T18:14:34.225Z,23
2016-05-05T18:15:34.275Z,22.71
2016-05-05T18:16:34.123Z,23.19
2016-05-05T18:17:34.312Z,22.81
2016-05-05T18:18:34.361Z,22.81
2016-05-05T18:19:34.224Z,23.38
2016-05-05T18:20:34.398Z,23.47
2016-05-05T18:21:34.433Z,23.66
2016-05-05T18:22:34.466Z,22.89
2016-05-05T18:23:34.344Z,23.38
2016-05-05T18:24:34.362Z,23.38
2016-05-05T18:25:34.553Z,23.66
2016-05-05T18:26:34.633Z,23.76
2016-05-05T18:27:34.620Z,23.47
2016-05-05T18:28:34.482Z,23.96
2016-05-05T18:29:34.673Z,24.15
2016-05-05T18:30:34.707Z,23.66
2016-05-05T18:31:34.740Z,23.75
2016-05-05T18:32:34.775Z,23.94
2016-05-05T18:33:34.808Z,23.94
2016-05-05T18:34:34.843Z,23.94
2016-05-05T18:35:34.861Z,24.23
2016-05-05T18:36:34.895Z,24.04
2016-05-05T18:37:34.928Z,24.23
2016-05-05T18:38:34.806Z,24.23
2016-05-05T18:39:34.981Z,24.23
2016-05-05T18:40:35.030Z,24.61
2016-05-05T18:41:35.048Z,24.99
2016-05-05T18:42:35.067Z,24.8
2016-05-05T18:43:35.101Z,25.09
2016-05-05T18:44:35.151Z,24.99
2016-05-05T18:45:35.168Z,24.99
2016-05-05T18:46:35.218Z,24.99
2016-05-05T18:47:35.220Z,25.19
2016-05-05T18:48:35.256Z,25.19
2016-05-05T18:49:35.289Z,24.9
2016-05-05T18:50:35.167Z,25.57
2016-05-05T18:51:35.184Z,25.48
2016-05-05T18:52:35.391Z,25.37
2016-05-05T18:53:35.409Z,25.57
2016-05-05T18:54:35.428Z,25.56
2016-05-05T18:55:35.493Z,25.37
2016-05-05T18:56:35.494Z,25.66
2016-05-05T18:57:35.513Z,25.75
2016-05-05T18:58:35.547Z,25.85
2016-05-05T18:59:35.410Z,25.95
2016-05-05T19:00:35.459Z,25.95
2016-05-05T19:01:35.494Z,26.14
2016-05-05T19:02:35.668Z,26.33
2016-05-05T19:03:35.686Z,26.51
2016-05-05T19:04:35.580Z,26.32
2016-05-05T19:05:35.754Z,26.22
2016-05-05T19:06:35.772Z,26.7
2016-05-05T19:07:35.807Z,26.61
2016-05-05T19:08:35.841Z,26.9
2016-05-05T19:09:35.702Z,26.9
2016-05-05T19:10:35.751Z,26.9
2016-05-05T19:11:35.771Z,27.09
2016-05-05T19:12:35.960Z,27.09
2016-05-05T19:13:35.979Z,27.17
2016-05-05T19:14:35.871Z,27.08
2016-05-05T19:15:36.046Z,27.09
2016-05-05T19:16:36.096Z,26.7
2016-05-05T19:17:36.099Z,26.89
2016-05-05T19:18:36.117Z,27.08
2016-05-05T19:19:36.167Z,26.98
2016-05-05T19:20:36.185Z,27.46
2016-05-05T19:21:36.220Z,27.37
2016-05-05T19:22:36.237Z,27.08
2016-05-05T19:23:36.271Z,27.27
2016-05-05T19:24:36.164Z,27.17
2016-05-05T19:25:36.745Z,27.85
2016-05-05T19:26:36.373Z,27.75
2016-05-05T19:27:36.375Z,27.56
2016-05-05T19:28:36.409Z,27.56
2016-05-05T19:29:36.444Z,27.37
2016-05-05T19:30:36.461Z,27.27
2016-05-05T19:31:36.355Z,27.64
2016-05-05T19:32:36.530Z,28.04
2016-05-05T19:33:36.548Z,27.64
2016-05-05T19:34:36.582Z,27.93
2016-05-05T19:35:36.616Z,28.03
2016-05-05T19:36:36.650Z,28.22
2016-05-05T19:37:36.669Z,28.22
2016-05-05T19:38:36.686Z,28.51
2016-05-05T19:39:36.721Z,28.7
2016-05-05T19:40:36.754Z,28.51
2016-05-05T19:41:36.788Z,28.51
2016-05-05T19:42:36.806Z,28.49
2016-05-05T19:43:36.825Z,28.51
2016-05-05T19:44:36.859Z,28.7
2016-05-05T19:45:36.737Z,28.78
2016-05-05T19:46:36.927Z,28.69
2016-05-05T19:47:36.945Z,28.69
2016-05-05T19:48:36.979Z,28.78
2016-05-05T19:49:37.013Z,29.07
2016-05-05T19:50:37.031Z,28.78
2016-05-05T19:51:37.065Z,28.88
2016-05-05T19:52:36.942Z,29.17
2016-05-05T19:53:37.117Z,28.78
2016-05-05T19:54:37.136Z,29.07
2016-05-05T19:55:37.170Z,29.46
2016-05-05T19:56:37.188Z,28.97
2016-05-05T19:57:37.066Z,29.17
2016-05-05T19:58:37.100Z,29.35
2016-05-05T19:59:37.290Z,29.35
2016-05-05T20:00:37.152Z,29.44
2016-05-05T20:01:37.342Z,29.25
2016-05-05T20:02:37.219Z,29.25
2016-05-05T20:03:37.395Z,29.54
2016-05-05T20:04:37.275Z,29.54
2016-05-05T20:05:37.490Z,29.44
2016-05-05T20:06:37.566Z,29.93
2016-05-05T20:07:37.470Z,29.63
2016-05-05T20:08:37.702Z,29.63
2016-05-05T20:09:37.759Z,29.83
2016-05-05T20:10:37.652Z,30.11
2016-05-05T20:11:37.857Z,29.83
2016-05-05T20:12:37.891Z,30.11
2016-05-05T20:13:37.939Z,30.11
2016-05-05T20:14:38.004Z,30.21
2016-05-05T20:15:38.012Z,30.21
2016-05-05T20:16:38.050Z,30.21
2016-05-05T20:17:38.075Z,30.29
2016-05-05T20:18:38.114Z,30.49
2016-05-05T20:19:38.138Z,30.19
2016-05-05T20:20:38.001Z,30.19
2016-05-05T20:21:38.208Z,30.19
2016-05-05T20:22:38.244Z,30.87
2016-05-05T20:23:38.249Z,30.58
2016-05-05T20:24:38.286Z,30.68
2016-05-05T20:25:38.320Z,30.87
2016-05-05T20:26:38.355Z,30.58
2016-05-05T20:27:38.374Z,30.87
2016-05-05T20:28:38.392Z,30.97
2016-05-05T20:29:38.428Z,30.77
2016-05-05T20:30:38.445Z,30.97
2016-05-05T20:31:38.480Z,31.16
2016-05-05T20:32:38.514Z,31.26
2016-05-05T20:33:38.531Z,31.35
2016-05-05T20:34:38.566Z,30.95
2016-05-05T20:35:38.584Z,31.16
2016-05-05T20:36:38.619Z,31.43
2016-05-05T20:37:38.636Z,31.24
2016-05-05T20:38:38.670Z,31.24
2016-05-05T20:39:38.704Z,31.05
2016-05-05T20:40:38.739Z,31.53
2016-05-05T20:41:38.757Z,31.72
2016-05-05T20:42:38.791Z,31.92
2016-05-05T20:43:38.809Z,31.82
2016-05-05T20:44:38.858Z,31.92
2016-05-05T20:45:38.861Z,31.72
2016-05-05T20:46:38.879Z,31.92
2016-05-05T20:47:38.913Z,31.72
2016-05-05T20:48:38.947Z,32.1
2016-05-05T20:49:38.966Z,32.39
2016-05-05T20:50:38.999Z,32.01
2016-05-05T20:51:39.018Z,32.1
2016-05-05T20:52:39.037Z,31.72
2016-05-05T20:53:39.070Z,32.1
2016-05-05T20:54:39.104Z,32.59
2016-05-05T20:55:40.013Z,32.49
2016-05-05T20:56:39.156Z,32.47
2016-05-05T20:57:39.018Z,32.39
2016-05-05T20:58:39.209Z,32.18
2016-05-05T20:59:39.227Z,32.28
2016-05-05T21:00:39.262Z,32.18
2016-05-05T21:01:39.279Z,32.18
2016-05-05T21:02:39.314Z,32.38
2016-05-05T21:03:39.331Z,32.57
2016-05-05T21:04:39.365Z,32.67
2016-05-05T21:05:39.383Z,32.86
2016-05-05T21:06:39.262Z,32.76
2016-05-05T21:07:39.436Z,33.05
2016-05-05T21:08:39.470Z,32.86
2016-05-05T21:09:39.488Z,32.95
2016-05-05T21:10:40.131Z,32.95
2016-05-05T21:11:39.541Z,32.86
2016-05-05T21:12:39.575Z,32.86
2016-05-05T21:13:39.608Z,32.95
2016-05-05T21:14:39.627Z,32.75
2016-05-05T21:15:39.645Z,33.15
2016-05-05T21:16:39.679Z,33.05
2016-05-05T21:17:39.729Z,32.95
2016-05-05T21:18:39.575Z,33.03
2016-05-05T21:19:39.765Z,33.23
2016-05-05T21:20:39.783Z,33.23
2016-05-05T21:21:39.802Z,33.32
2016-05-05T21:22:39.835Z,33.42
2016-05-05T21:23:39.870Z,33.61
2016-05-05T21:24:39.888Z,33.9
2016-05-05T21:25:39.921Z,33.61
2016-05-05T21:26:39.784Z,33.61
2016-05-05T21:27:39.990Z,33.61
2016-05-05T21:28:39.977Z,33.51
2016-05-05T21:29:40.011Z,33.42
2016-05-05T21:30:40.045Z,33.8
2016-05-05T21:31:40.062Z,33.61
2016-05-05T21:32:40.098Z,33.7
2016-05-05T21:33:40.131Z,33.51
2016-05-05T21:34:39.993Z,33.99
2016-05-05T21:35:40.167Z,33.99
2016-05-05T21:36:40.045Z,33.99
2016-05-05T21:37:40.220Z,33.8
2016-05-05T21:38:40.253Z,33.61
2016-05-05T21:39:40.116Z,33.59
2016-05-05T21:40:40.306Z,34.17
2016-05-05T21:41:40.325Z,34.47
2016-05-05T21:42:40.359Z,33.98
2016-05-05T21:43:40.377Z,33.98
2016-05-05T21:44:40.410Z,33.78
2016-05-05T21:45:40.429Z,34.07
2016-05-05T21:46:40.463Z,33.98
2016-05-05T21:47:40.481Z,34.27
2016-05-05T21:48:40.499Z,34.75
2016-05-05T21:49:40.533Z,34.75
2016-05-05T21:50:40.568Z,34.36
2016-05-05T21:51:40.585Z,34.36
2016-05-05T21:52:40.604Z,34.55
2016-05-05T21:53:40.482Z,34.84
2016-05-05T21:54:40.657Z,34.75
2016-05-05T21:55:40.909Z,34.75
2016-05-05T21:56:40.709Z,34.84
2016-05-05T21:57:40.743Z,34.94
2016-05-05T21:58:40.605Z,35.22
2016-05-05T21:59:40.623Z,35.32
2016-05-05T22:00:40.813Z,35.13
2016-05-05T22:01:40.848Z,35.03
2016-05-05T22:02:40.865Z,35.32
2016-05-05T22:03:40.899Z,35.11
2016-05-05T22:04:40.918Z,35.21
2016-05-05T22:05:40.779Z,35.21
2016-05-05T22:06:40.970Z,34.73